sensor_id;sensor_type;location;lat;lon;timestamp;P1;durP1;ratioP1;P2;durP2;ratioP2
7255;SDS011;3669;49.200;9.242;2022-07-29T00:01:26;3.78;;;2.70;;
7255;SDS011;3669;49.200;9.242;2022-07-29T00:03:53;3.10;;;2.72;;
7255;SDS011;3669;49.200;9.242;2022-07-29T00:06:20;4.50;;;3.13;;
7255;SDS011;3669;49.200;9.242;2022-07-29T00:08:47;4.70;;;3.00;;
7255;SDS011;3669;49.200;9.242;2022-07-29T00:11:14;3.35;;;2.80;;
7255;SDS011;3669;49.200;9.242;2022-07-29T00:13:41;3.05;;;2.85;;
7255;SDS011;3669;49.200;9.242;2022-07-29T00:16:08;3.75;;;2.75;;
7255;SDS011;3669;49.200;9.242;2022-07-29T00:18:36;4.68;;;3.00;;
7255;SDS011;3669;49.200;9.242;2022-07-29T00:21:03;3.30;;;2.97;;
7255;SDS011;3669;49.200;9.242;2022-07-29T00:23:30;3.22;;;2.92;;
7255;SDS011;3669;49.200;9.242;2022-07-29T00:25:57;3.28;;;2.97;;
7255;SDS011;3669;49.200;9.242;2022-07-29T00:28:24;3.30;;;3.00;;
7255;SDS011;3669;49.200;9.242;2022-07-29T00:30:52;3.30;;;3.00;;
7255;SDS011;3669;49.200;9.242;2022-07-29T00:33:19;3.10;;;2.80;;
7255;SDS011;3669;49.200;9.242;2022-07-29T00:35:46;3.30;;;2.97;;
7255;SDS011;3669;49.200;9.242;2022-07-29T00:38:13;3.45;;;3.15;;
7255;SDS011;3669;49.200;9.242;2022-07-29T00:40:41;3.63;;;3.00;;
7255;SDS011;3669;49.200;9.242;2022-07-29T00:43:08;5.55;;;3.00;;
7255;SDS011;3669;49.200;9.242;2022-07-29T00:45:36;2.95;;;2.75;;
7255;SDS011;3669;49.200;9.242;2022-07-29T00:48:03;3.60;;;2.70;;
7255;SDS011;3669;49.200;9.242;2022-07-29T00:50:31;3.45;;;2.92;;
7255;SDS011;3669;49.200;9.242;2022-07-29T00:52:58;3.10;;;2.90;;
7255;SDS011;3669;49.200;9.242;2022-07-29T00:55:26;3.25;;;3.00;;
7255;SDS011;3669;49.200;9.242;2022-07-29T00:57:53;3.10;;;2.65;;
7255;SDS011;3669;49.200;9.242;2022-07-29T01:00:22;3.38;;;3.08;;
7255;SDS011;3669;49.200;9.242;2022-07-29T01:02:49;3.20;;;2.90;;
7255;SDS011;3669;49.200;9.242;2022-07-29T01:05:18;3.70;;;3.00;;
7255;SDS011;3669;49.200;9.242;2022-07-29T01:07:46;3.67;;;3.00;;
7255;SDS011;3669;49.200;9.242;2022-07-29T01:10:13;4.05;;;3.30;;
7255;SDS011;3669;49.200;9.242;2022-07-29T01:12:42;3.28;;;2.97;;
7255;SDS011;3669;49.200;9.242;2022-07-29T01:15:10;3.50;;;2.97;;
7255;SDS011;3669;49.200;9.242;2022-07-29T01:17:42;5.15;;;4.85;;
7255;SDS011;3669;49.200;9.242;2022-07-29T01:20:21;16.05;;;15.40;;
7255;SDS011;3669;49.200;9.242;2022-07-29T01:31:04;3.17;;;2.90;;
7255;SDS011;3669;49.200;9.242;2022-07-29T01:33:32;2.80;;;2.60;;
7255;SDS011;3669;49.200;9.242;2022-07-29T01:36:20;3.25;;;2.95;;
7255;SDS011;3669;49.200;9.242;2022-07-29T01:38:53;2.58;;;2.38;;
7255;SDS011;3669;49.200;9.242;2022-07-29T01:41:21;3.10;;;2.80;;
7255;SDS011;3669;49.200;9.242;2022-07-29T01:44:11;3.15;;;2.92;;
7255;SDS011;3669;49.200;9.242;2022-07-29T01:46:37;3.17;;;2.97;;
7255;SDS011;3669;49.200;9.242;2022-07-29T01:49:08;3.20;;;2.90;;
7255;SDS011;3669;49.200;9.242;2022-07-29T01:51:43;3.53;;;2.85;;
7255;SDS011;3669;49.200;9.242;2022-07-29T01:54:30;3.67;;;3.22;;
7255;SDS011;3669;49.200;9.242;2022-07-29T01:56:59;3.33;;;2.83;;
7255;SDS011;3669;49.200;9.242;2022-07-29T01:59:27;3.33;;;3.00;;
7255;SDS011;3669;49.200;9.242;2022-07-29T02:01:56;3.40;;;3.10;;
7255;SDS011;3669;49.200;9.242;2022-07-29T02:04:24;3.72;;;2.90;;
7255;SDS011;3669;49.200;9.242;2022-07-29T02:06:54;3.30;;;3.00;;
7255;SDS011;3669;49.200;9.242;2022-07-29T02:09:24;3.33;;;3.03;;
7255;SDS011;3669;49.200;9.242;2022-07-29T02:11:52;3.00;;;2.70;;
7255;SDS011;3669;49.200;9.242;2022-07-29T02:14:21;3.83;;;3.30;;
7255;SDS011;3669;49.200;9.242;2022-07-29T02:16:50;3.38;;;2.88;;
7255;SDS011;3669;49.200;9.242;2022-07-29T02:19:19;3.38;;;3.17;;
7255;SDS011;3669;49.200;9.242;2022-07-29T02:21:48;3.50;;;3.08;;
7255;SDS011;3669;49.200;9.242;2022-07-29T02:24:16;3.03;;;2.72;;
7255;SDS011;3669;49.200;9.242;2022-07-29T02:26:45;3.45;;;3.15;;
7255;SDS011;3669;49.200;9.242;2022-07-29T02:29:12;2.72;;;2.47;;
7255;SDS011;3669;49.200;9.242;2022-07-29T02:31:41;3.53;;;3.22;;
7255;SDS011;3669;49.200;9.242;2022-07-29T02:34:09;3.20;;;2.88;;
7255;SDS011;3669;49.200;9.242;2022-07-29T02:36:37;3.40;;;3.10;;
7255;SDS011;3669;49.200;9.242;2022-07-29T02:39:04;4.97;;;4.60;;
7255;SDS011;3669;49.200;9.242;2022-07-29T02:41:42;3.10;;;2.90;;
7255;SDS011;3669;49.200;9.242;2022-07-29T02:44:12;3.35;;;3.05;;
7255;SDS011;3669;49.200;9.242;2022-07-29T02:46:48;3.20;;;2.90;;
7255;SDS011;3669;49.200;9.242;2022-07-29T02:52:04;3.05;;;2.70;;
7255;SDS011;3669;49.200;9.242;2022-07-29T02:54:33;3.42;;;3.13;;
7255;SDS011;3669;49.200;9.242;2022-07-29T02:57:06;3.55;;;3.25;;
7255;SDS011;3669;49.200;9.242;2022-07-29T02:59:36;3.08;;;2.88;;
7255;SDS011;3669;49.200;9.242;2022-07-29T03:02:05;3.22;;;2.97;;
7255;SDS011;3669;49.200;9.242;2022-07-29T03:04:33;3.38;;;3.08;;
7255;SDS011;3669;49.200;9.242;2022-07-29T03:07:01;4.07;;;3.67;;
7255;SDS011;3669;49.200;9.242;2022-07-29T03:09:29;3.30;;;3.00;;
7255;SDS011;3669;49.200;9.242;2022-07-29T03:11:56;3.60;;;3.28;;
7255;SDS011;3669;49.200;9.242;2022-07-29T03:14:23;3.60;;;3.30;;
7255;SDS011;3669;49.200;9.242;2022-07-29T03:16:51;3.85;;;3.10;;
7255;SDS011;3669;49.200;9.242;2022-07-29T03:19:18;3.55;;;3.00;;
7255;SDS011;3669;49.200;9.242;2022-07-29T03:21:46;3.60;;;3.30;;
7255;SDS011;3669;49.200;9.242;2022-07-29T03:24:26;3.83;;;3.10;;
7255;SDS011;3669;49.200;9.242;2022-07-29T03:26:54;3.13;;;2.85;;
7255;SDS011;3669;49.200;9.242;2022-07-29T03:29:21;3.40;;;3.10;;
7255;SDS011;3669;49.200;9.242;2022-07-29T03:31:48;3.47;;;3.17;;
7255;SDS011;3669;49.200;9.242;2022-07-29T03:34:16;3.60;;;3.30;;
7255;SDS011;3669;49.200;9.242;2022-07-29T03:36:43;3.60;;;3.30;;
7255;SDS011;3669;49.200;9.242;2022-07-29T03:39:10;5.78;;;5.45;;
7255;SDS011;3669;49.200;9.242;2022-07-29T03:41:38;11.88;;;11.27;;
7255;SDS011;3669;49.200;9.242;2022-07-29T03:44:07;15.52;;;14.88;;
7255;SDS011;3669;49.200;9.242;2022-07-29T03:46:34;19.27;;;18.45;;
7255;SDS011;3669;49.200;9.242;2022-07-29T03:49:02;6.32;;;5.93;;
7255;SDS011;3669;49.200;9.242;2022-07-29T03:51:29;3.83;;;3.53;;
7255;SDS011;3669;49.200;9.242;2022-07-29T03:53:57;3.55;;;3.25;;
7255;SDS011;3669;49.200;9.242;2022-07-29T03:56:25;4.35;;;3.30;;
7255;SDS011;3669;49.200;9.242;2022-07-29T03:58:53;3.58;;;3.22;;
7255;SDS011;3669;49.200;9.242;2022-07-29T04:01:21;4.13;;;3.63;;
7255;SDS011;3669;49.200;9.242;2022-07-29T04:03:49;3.90;;;3.55;;
7255;SDS011;3669;49.200;9.242;2022-07-29T04:06:16;3.42;;;3.20;;
7255;SDS011;3669;49.200;9.242;2022-07-29T04:08:43;3.80;;;3.38;;
7255;SDS011;3669;49.200;9.242;2022-07-29T04:11:11;4.47;;;3.40;;
7255;SDS011;3669;49.200;9.242;2022-07-29T04:13:38;3.70;;;3.40;;
7255;SDS011;3669;49.200;9.242;2022-07-29T04:16:05;4.10;;;3.80;;
7255;SDS011;3669;49.200;9.242;2022-07-29T04:18:32;3.65;;;2.80;;
7255;SDS011;3669;49.200;9.242;2022-07-29T04:20:59;3.60;;;3.28;;
7255;SDS011;3669;49.200;9.242;2022-07-29T04:23:27;3.53;;;3.15;;
7255;SDS011;3669;49.200;9.242;2022-07-29T04:25:54;3.50;;;3.20;;
7255;SDS011;3669;49.200;9.242;2022-07-29T04:28:21;3.85;;;3.55;;
7255;SDS011;3669;49.200;9.242;2022-07-29T04:30:48;3.75;;;3.45;;
7255;SDS011;3669;49.200;9.242;2022-07-29T04:33:15;4.07;;;3.67;;
7255;SDS011;3669;49.200;9.242;2022-07-29T04:35:43;4.10;;;3.65;;
7255;SDS011;3669;49.200;9.242;2022-07-29T04:38:10;4.05;;;3.75;;
7255;SDS011;3669;49.200;9.242;2022-07-29T04:40:38;4.25;;;3.40;;
7255;SDS011;3669;49.200;9.242;2022-07-29T04:43:05;4.05;;;3.35;;
7255;SDS011;3669;49.200;9.242;2022-07-29T04:45:32;5.70;;;3.50;;
7255;SDS011;3669;49.200;9.242;2022-07-29T04:47:59;4.07;;;3.28;;
7255;SDS011;3669;49.200;9.242;2022-07-29T04:50:26;3.70;;;3.40;;
7255;SDS011;3669;49.200;9.242;2022-07-29T04:52:53;3.95;;;3.50;;
7255;SDS011;3669;49.200;9.242;2022-07-29T04:55:20;3.85;;;3.55;;
7255;SDS011;3669;49.200;9.242;2022-07-29T04:57:48;4.40;;;3.38;;
7255;SDS011;3669;49.200;9.242;2022-07-29T05:00:15;4.05;;;3.55;;
7255;SDS011;3669;49.200;9.242;2022-07-29T05:02:42;7.38;;;3.80;;
7255;SDS011;3669;49.200;9.242;2022-07-29T05:05:09;9.38;;;4.43;;
7255;SDS011;3669;49.200;9.242;2022-07-29T05:07:36;5.07;;;4.55;;
7255;SDS011;3669;49.200;9.242;2022-07-29T05:10:03;4.63;;;4.18;;
7255;SDS011;3669;49.200;9.242;2022-07-29T05:12:30;10.75;;;4.43;;
7255;SDS011;3669;49.200;9.242;2022-07-29T05:14:57;6.40;;;3.63;;
7255;SDS011;3669;49.200;9.242;2022-07-29T05:17:24;4.82;;;3.55;;
7255;SDS011;3669;49.200;9.242;2022-07-29T05:19:52;4.45;;;4.10;;
7255;SDS011;3669;49.200;9.242;2022-07-29T05:22:19;4.55;;;3.92;;
7255;SDS011;3669;49.200;9.242;2022-07-29T05:24:46;5.07;;;3.70;;
7255;SDS011;3669;49.200;9.242;2022-07-29T05:27:13;4.93;;;4.00;;
7255;SDS011;3669;49.200;9.242;2022-07-29T05:29:40;6.18;;;3.90;;
7255;SDS011;3669;49.200;9.242;2022-07-29T05:32:07;9.55;;;9.00;;
7255;SDS011;3669;49.200;9.242;2022-07-29T05:34:34;22.52;;;21.42;;
7255;SDS011;3669;49.200;9.242;2022-07-29T05:37:01;24.33;;;23.08;;
7255;SDS011;3669;49.200;9.242;2022-07-29T05:39:28;23.55;;;22.25;;
7255;SDS011;3669;49.200;9.242;2022-07-29T05:41:55;21.35;;;20.25;;
7255;SDS011;3669;49.200;9.242;2022-07-29T05:44:22;15.57;;;14.73;;
7255;SDS011;3669;49.200;9.242;2022-07-29T05:46:49;8.40;;;7.85;;
7255;SDS011;3669;49.200;9.242;2022-07-29T05:49:16;6.05;;;4.25;;
7255;SDS011;3669;49.200;9.242;2022-07-29T05:51:43;4.30;;;3.90;;
7255;SDS011;3669;49.200;9.242;2022-07-29T05:54:10;4.38;;;3.92;;
7255;SDS011;3669;49.200;9.242;2022-07-29T05:56:38;4.88;;;4.20;;
7255;SDS011;3669;49.200;9.242;2022-07-29T05:59:05;5.57;;;4.07;;
7255;SDS011;3669;49.200;9.242;2022-07-29T06:01:32;3.95;;;3.65;;
7255;SDS011;3669;49.200;9.242;2022-07-29T06:03:59;4.20;;;3.90;;
7255;SDS011;3669;49.200;9.242;2022-07-29T06:06:27;4.30;;;3.90;;
7255;SDS011;3669;49.200;9.242;2022-07-29T06:08:54;4.93;;;3.88;;
7255;SDS011;3669;49.200;9.242;2022-07-29T06:11:21;3.92;;;3.50;;
7255;SDS011;3669;49.200;9.242;2022-07-29T06:13:49;4.30;;;3.90;;
7255;SDS011;3669;49.200;9.242;2022-07-29T06:16:16;3.88;;;3.58;;
7255;SDS011;3669;49.200;9.242;2022-07-29T06:18:43;4.30;;;3.90;;
7255;SDS011;3669;49.200;9.242;2022-07-29T06:21:10;4.40;;;4.00;;
7255;SDS011;3669;49.200;9.242;2022-07-29T06:23:37;3.97;;;3.40;;
7255;SDS011;3669;49.200;9.242;2022-07-29T06:26:05;4.18;;;3.80;;
7255;SDS011;3669;49.200;9.242;2022-07-29T06:28:32;4.55;;;3.70;;
7255;SDS011;3669;49.200;9.242;2022-07-29T06:30:59;4.97;;;3.70;;
7255;SDS011;3669;49.200;9.242;2022-07-29T06:33:27;3.92;;;3.63;;
7255;SDS011;3669;49.200;9.242;2022-07-29T06:35:54;3.70;;;3.40;;
7255;SDS011;3669;49.200;9.242;2022-07-29T06:38:21;4.68;;;3.58;;
7255;SDS011;3669;49.200;9.242;2022-07-29T06:40:49;5.07;;;3.55;;
7255;SDS011;3669;49.200;9.242;2022-07-29T06:43:38;4.07;;;3.78;;
7255;SDS011;3669;49.200;9.242;2022-07-29T06:46:08;5.35;;;3.88;;
7255;SDS011;3669;49.200;9.242;2022-07-29T06:48:36;4.00;;;3.58;;
7255;SDS011;3669;49.200;9.242;2022-07-29T06:51:04;4.60;;;3.88;;
7255;SDS011;3669;49.200;9.242;2022-07-29T06:53:32;4.03;;;3.63;;
7255;SDS011;3669;49.200;9.242;2022-07-29T06:56:00;4.00;;;3.70;;
7255;SDS011;3669;49.200;9.242;2022-07-29T06:58:27;3.78;;;3.47;;
7255;SDS011;3669;49.200;9.242;2022-07-29T07:00:55;4.30;;;3.70;;
7255;SDS011;3669;49.200;9.242;2022-07-29T07:03:23;4.18;;;3.65;;
7255;SDS011;3669;49.200;9.242;2022-07-29T07:05:51;4.28;;;3.78;;
7255;SDS011;3669;49.200;9.242;2022-07-29T07:08:19;3.63;;;3.33;;
7255;SDS011;3669;49.200;9.242;2022-07-29T07:10:47;4.05;;;3.70;;
7255;SDS011;3669;49.200;9.242;2022-07-29T07:13:15;3.90;;;3.60;;
7255;SDS011;3669;49.200;9.242;2022-07-29T07:15:43;6.07;;;3.72;;
7255;SDS011;3669;49.200;9.242;2022-07-29T07:18:11;13.18;;;12.38;;
7255;SDS011;3669;49.200;9.242;2022-07-29T07:20:38;3.67;;;3.38;;
7255;SDS011;3669;49.200;9.242;2022-07-29T07:23:05;3.78;;;3.47;;
7255;SDS011;3669;49.200;9.242;2022-07-29T07:25:32;3.75;;;3.45;;
7255;SDS011;3669;49.200;9.242;2022-07-29T07:27:59;3.90;;;3.50;;
7255;SDS011;3669;49.200;9.242;2022-07-29T07:30:26;4.97;;;3.55;;
7255;SDS011;3669;49.200;9.242;2022-07-29T07:32:54;3.90;;;3.60;;
7255;SDS011;3669;49.200;9.242;2022-07-29T07:35:21;3.70;;;3.40;;
7255;SDS011;3669;49.200;9.242;2022-07-29T07:37:48;3.80;;;3.50;;
7255;SDS011;3669;49.200;9.242;2022-07-29T07:40:15;4.03;;;3.72;;
7255;SDS011;3669;49.200;9.242;2022-07-29T07:42:42;3.83;;;3.50;;
7255;SDS011;3669;49.200;9.242;2022-07-29T07:45:10;4.20;;;3.80;;
7255;SDS011;3669;49.200;9.242;2022-07-29T07:47:38;3.90;;;3.45;;
7255;SDS011;3669;49.200;9.242;2022-07-29T07:50:05;3.65;;;3.35;;
7255;SDS011;3669;49.200;9.242;2022-07-29T07:52:33;4.38;;;3.97;;
7255;SDS011;3669;49.200;9.242;2022-07-29T07:55:00;3.72;;;3.42;;
7255;SDS011;3669;49.200;9.242;2022-07-29T07:57:27;3.65;;;3.28;;
7255;SDS011;3669;49.200;9.242;2022-07-29T07:59:54;3.90;;;3.47;;
7255;SDS011;3669;49.200;9.242;2022-07-29T08:02:21;3.97;;;3.67;;
7255;SDS011;3669;49.200;9.242;2022-07-29T08:04:48;4.28;;;3.30;;
7255;SDS011;3669;49.200;9.242;2022-07-29T08:07:15;8.23;;;7.65;;
7255;SDS011;3669;49.200;9.242;2022-07-29T08:09:42;16.88;;;15.90;;
7255;SDS011;3669;49.200;9.242;2022-07-29T08:12:09;20.25;;;19.27;;
7255;SDS011;3669;49.200;9.242;2022-07-29T08:14:36;18.75;;;17.88;;
7255;SDS011;3669;49.200;9.242;2022-07-29T08:17:03;25.98;;;24.58;;
7255;SDS011;3669;49.200;9.242;2022-07-29T08:19:30;24.02;;;22.88;;
7255;SDS011;3669;49.200;9.242;2022-07-29T08:21:56;9.48;;;8.95;;
7255;SDS011;3669;49.200;9.242;2022-07-29T08:24:23;4.43;;;4.05;;
7255;SDS011;3669;49.200;9.242;2022-07-29T08:27:11;3.83;;;3.42;;
7255;SDS011;3669;49.200;9.242;2022-07-29T08:29:37;3.97;;;3.60;;
7255;SDS011;3669;49.200;9.242;2022-07-29T08:32:05;4.28;;;3.58;;
7255;SDS011;3669;49.200;9.242;2022-07-29T08:34:32;4.05;;;3.20;;
7255;SDS011;3669;49.200;9.242;2022-07-29T08:36:59;3.88;;;3.42;;
7255;SDS011;3669;49.200;9.242;2022-07-29T08:39:27;4.20;;;3.50;;
7255;SDS011;3669;49.200;9.242;2022-07-29T08:41:54;5.35;;;3.65;;
7255;SDS011;3669;49.200;9.242;2022-07-29T08:44:21;4.28;;;3.78;;
7255;SDS011;3669;49.200;9.242;2022-07-29T08:46:49;4.18;;;3.67;;
7255;SDS011;3669;49.200;9.242;2022-07-29T08:49:16;4.72;;;3.47;;
7255;SDS011;3669;49.200;9.242;2022-07-29T08:51:44;3.95;;;3.55;;
7255;SDS011;3669;49.200;9.242;2022-07-29T08:54:11;4.75;;;3.83;;
7255;SDS011;3669;49.200;9.242;2022-07-29T08:56:44;4.30;;;3.90;;
7255;SDS011;3669;49.200;9.242;2022-07-29T08:59:12;3.75;;;3.45;;
7255;SDS011;3669;49.200;9.242;2022-07-29T09:01:39;4.53;;;3.80;;
7255;SDS011;3669;49.200;9.242;2022-07-29T09:04:10;3.95;;;3.58;;
7255;SDS011;3669;49.200;9.242;2022-07-29T09:06:39;3.70;;;3.30;;
7255;SDS011;3669;49.200;9.242;2022-07-29T09:09:09;4.63;;;3.90;;
7255;SDS011;3669;49.200;9.242;2022-07-29T09:11:36;3.88;;;3.55;;
7255;SDS011;3669;49.200;9.242;2022-07-29T09:14:03;5.68;;;3.90;;
7255;SDS011;3669;49.200;9.242;2022-07-29T09:16:44;3.95;;;3.47;;
7255;SDS011;3669;49.200;9.242;2022-07-29T09:19:21;3.75;;;3.45;;
7255;SDS011;3669;49.200;9.242;2022-07-29T09:21:49;3.80;;;3.50;;
7255;SDS011;3669;49.200;9.242;2022-07-29T09:24:27;5.32;;;3.88;;
7255;SDS011;3669;49.200;9.242;2022-07-29T09:26:54;3.95;;;3.63;;
7255;SDS011;3669;49.200;9.242;2022-07-29T09:29:22;4.22;;;3.72;;
7255;SDS011;3669;49.200;9.242;2022-07-29T09:31:51;4.30;;;3.88;;
7255;SDS011;3669;49.200;9.242;2022-07-29T09:34:23;4.30;;;3.80;;
7255;SDS011;3669;49.200;9.242;2022-07-29T09:36:51;4.15;;;3.40;;
7255;SDS011;3669;49.200;9.242;2022-07-29T09:41:56;5.60;;;3.90;;
7255;SDS011;3669;49.200;9.242;2022-07-29T09:44:23;4.35;;;3.95;;
7255;SDS011;3669;49.200;9.242;2022-07-29T09:46:54;4.10;;;3.70;;
7255;SDS011;3669;49.200;9.242;2022-07-29T09:49:22;4.05;;;3.75;;
7255;SDS011;3669;49.200;9.242;2022-07-29T09:54:46;4.03;;;3.60;;
7255;SDS011;3669;49.200;9.242;2022-07-29T09:57:26;4.32;;;3.92;;
7255;SDS011;3669;49.200;9.242;2022-07-29T10:00:08;4.10;;;3.80;;
7255;SDS011;3669;49.200;9.242;2022-07-29T10:02:36;4.15;;;3.75;;
7255;SDS011;3669;49.200;9.242;2022-07-29T10:05:05;4.78;;;4.07;;
7255;SDS011;3669;49.200;9.242;2022-07-29T10:07:45;4.82;;;3.80;;
7255;SDS011;3669;49.200;9.242;2022-07-29T10:10:20;4.30;;;4.00;;
7255;SDS011;3669;49.200;9.242;2022-07-29T10:12:52;4.55;;;4.00;;
7255;SDS011;3669;49.200;9.242;2022-07-29T10:15:21;4.25;;;3.80;;
7255;SDS011;3669;49.200;9.242;2022-07-29T10:17:48;4.53;;;4.13;;
7255;SDS011;3669;49.200;9.242;2022-07-29T10:20:15;4.25;;;3.95;;
7255;SDS011;3669;49.200;9.242;2022-07-29T10:22:42;4.45;;;4.10;;
7255;SDS011;3669;49.200;9.242;2022-07-29T10:25:12;4.57;;;4.18;;
7255;SDS011;3669;49.200;9.242;2022-07-29T10:27:40;4.78;;;4.30;;
7255;SDS011;3669;49.200;9.242;2022-07-29T10:30:08;4.45;;;4.05;;
7255;SDS011;3669;49.200;9.242;2022-07-29T10:32:49;15.05;;;14.32;;
7255;SDS011;3669;49.200;9.242;2022-07-29T10:43:37;4.78;;;4.25;;
7255;SDS011;3669;49.200;9.242;2022-07-29T10:46:08;4.30;;;3.90;;
7255;SDS011;3669;49.200;9.242;2022-07-29T10:49:03;4.45;;;4.05;;
7255;SDS011;3669;49.200;9.242;2022-07-29T10:51:23;4.63;;;4.28;;
7255;SDS011;3669;49.200;9.242;2022-07-29T10:53:50;4.68;;;4.20;;
7255;SDS011;3669;49.200;9.242;2022-07-29T10:56:36;4.53;;;4.13;;
7255;SDS011;3669;49.200;9.242;2022-07-29T11:01:50;5.32;;;4.50;;
7255;SDS011;3669;49.200;9.242;2022-07-29T11:05:03;4.45;;;4.05;;
7255;SDS011;3669;49.200;9.242;2022-07-29T11:09:32;4.50;;;4.10;;
7255;SDS011;3669;49.200;9.242;2022-07-29T11:11:59;5.13;;;4.57;;
7255;SDS011;3669;49.200;9.242;2022-07-29T11:17:12;4.57;;;4.18;;
7255;SDS011;3669;49.200;9.242;2022-07-29T11:19:39;17.73;;;16.75;;
7255;SDS011;3669;49.200;9.242;2022-07-29T11:22:08;18.58;;;17.73;;
7255;SDS011;3669;49.200;9.242;2022-07-29T11:24:35;36.40;;;34.70;;
7255;SDS011;3669;49.200;9.242;2022-07-29T11:27:06;14.27;;;13.27;;
7255;SDS011;3669;49.200;9.242;2022-07-29T11:29:34;4.80;;;4.40;;
7255;SDS011;3669;49.200;9.242;2022-07-29T11:32:12;5.03;;;4.43;;
7255;SDS011;3669;49.200;9.242;2022-07-29T11:34:46;4.38;;;3.83;;
7255;SDS011;3669;49.200;9.242;2022-07-29T11:37:14;4.72;;;4.32;;
7255;SDS011;3669;49.200;9.242;2022-07-29T11:39:42;4.90;;;4.53;;
7255;SDS011;3669;49.200;9.242;2022-07-29T11:45:09;4.60;;;4.20;;
7255;SDS011;3669;49.200;9.242;2022-07-29T11:47:39;5.20;;;4.80;;
7255;SDS011;3669;49.200;9.242;2022-07-29T11:50:07;6.53;;;4.45;;
7255;SDS011;3669;49.200;9.242;2022-07-29T11:52:39;5.20;;;4.70;;
7255;SDS011;3669;49.200;9.242;2022-07-29T11:55:11;5.00;;;4.60;;
7255;SDS011;3669;49.200;9.242;2022-07-29T11:57:49;4.88;;;4.47;;
7255;SDS011;3669;49.200;9.242;2022-07-29T12:00:24;5.07;;;4.63;;
7255;SDS011;3669;49.200;9.242;2022-07-29T12:02:51;4.85;;;4.45;;
7255;SDS011;3669;49.200;9.242;2022-07-29T12:05:19;4.97;;;4.57;;
7255;SDS011;3669;49.200;9.242;2022-07-29T12:07:47;4.93;;;4.53;;
7255;SDS011;3669;49.200;9.242;2022-07-29T12:10:14;4.60;;;4.20;;
7255;SDS011;3669;49.200;9.242;2022-07-29T12:12:42;4.97;;;4.57;;
7255;SDS011;3669;49.200;9.242;2022-07-29T12:15:15;5.05;;;4.57;;
7255;SDS011;3669;49.200;9.242;2022-07-29T12:17:47;4.88;;;4.55;;
7255;SDS011;3669;49.200;9.242;2022-07-29T12:20:21;4.80;;;4.47;;
7255;SDS011;3669;49.200;9.242;2022-07-29T12:22:50;6.30;;;4.65;;
7255;SDS011;3669;49.200;9.242;2022-07-29T12:25:19;4.97;;;4.57;;
7255;SDS011;3669;49.200;9.242;2022-07-29T12:27:57;4.50;;;4.10;;
7255;SDS011;3669;49.200;9.242;2022-07-29T12:30:33;5.53;;;4.70;;
7255;SDS011;3669;49.200;9.242;2022-07-29T12:33:10;4.60;;;4.20;;
7255;SDS011;3669;49.200;9.242;2022-07-29T12:35:38;5.00;;;4.50;;
7255;SDS011;3669;49.200;9.242;2022-07-29T12:38:05;4.60;;;4.20;;
7255;SDS011;3669;49.200;9.242;2022-07-29T12:40:32;4.55;;;4.15;;
7255;SDS011;3669;49.200;9.242;2022-07-29T12:45:37;4.60;;;4.28;;
7255;SDS011;3669;49.200;9.242;2022-07-29T12:48:05;4.50;;;4.10;;
7255;SDS011;3669;49.200;9.242;2022-07-29T12:50:35;4.47;;;4.10;;
7255;SDS011;3669;49.200;9.242;2022-07-29T12:53:10;4.50;;;4.10;;
7255;SDS011;3669;49.200;9.242;2022-07-29T12:55:41;4.80;;;4.30;;
7255;SDS011;3669;49.200;9.242;2022-07-29T12:58:10;5.43;;;4.40;;
7255;SDS011;3669;49.200;9.242;2022-07-29T13:00:37;5.00;;;4.22;;
7255;SDS011;3669;49.200;9.242;2022-07-29T13:03:05;4.70;;;4.30;;
7255;SDS011;3669;49.200;9.242;2022-07-29T13:05:43;4.32;;;3.72;;
7255;SDS011;3669;49.200;9.242;2022-07-29T13:08:11;4.30;;;4.00;;
7255;SDS011;3669;49.200;9.242;2022-07-29T13:10:38;4.47;;;4.07;;
7255;SDS011;3669;49.200;9.242;2022-07-29T13:13:07;4.65;;;4.25;;
7255;SDS011;3669;49.200;9.242;2022-07-29T13:15:39;4.28;;;3.88;;
7255;SDS011;3669;49.200;9.242;2022-07-29T13:18:25;4.35;;;3.92;;
7255;SDS011;3669;49.200;9.242;2022-07-29T13:20:53;3.72;;;3.42;;
7255;SDS011;3669;49.200;9.242;2022-07-29T13:23:20;4.82;;;3.95;;
7255;SDS011;3669;49.200;9.242;2022-07-29T13:25:48;4.32;;;3.70;;
7255;SDS011;3669;49.200;9.242;2022-07-29T13:28:15;4.03;;;3.72;;
7255;SDS011;3669;49.200;9.242;2022-07-29T13:30:43;4.25;;;3.67;;
7255;SDS011;3669;49.200;9.242;2022-07-29T13:33:10;4.40;;;4.00;;
7255;SDS011;3669;49.200;9.242;2022-07-29T13:35:37;3.80;;;3.47;;
7255;SDS011;3669;49.200;9.242;2022-07-29T13:38:04;4.93;;;3.78;;
7255;SDS011;3669;49.200;9.242;2022-07-29T13:40:31;6.18;;;3.60;;
7255;SDS011;3669;49.200;9.242;2022-07-29T13:43:01;4.07;;;3.70;;
7255;SDS011;3669;49.200;9.242;2022-07-29T13:45:27;3.78;;;3.47;;
7255;SDS011;3669;49.200;9.242;2022-07-29T13:47:55;4.18;;;3.67;;
7255;SDS011;3669;49.200;9.242;2022-07-29T13:50:22;4.28;;;3.92;;
7255;SDS011;3669;49.200;9.242;2022-07-29T13:52:49;4.13;;;3.75;;
7255;SDS011;3669;49.200;9.242;2022-07-29T13:55:16;4.78;;;4.38;;
7255;SDS011;3669;49.200;9.242;2022-07-29T13:57:43;18.55;;;17.40;;
7255;SDS011;3669;49.200;9.242;2022-07-29T14:00:10;26.92;;;25.70;;
7255;SDS011;3669;49.200;9.242;2022-07-29T14:02:37;18.08;;;17.02;;
7255;SDS011;3669;49.200;9.242;2022-07-29T14:05:08;13.57;;;12.77;;
7255;SDS011;3669;49.200;9.242;2022-07-29T14:07:36;8.15;;;7.32;;
7255;SDS011;3669;49.200;9.242;2022-07-29T14:10:04;10.52;;;9.80;;
7255;SDS011;3669;49.200;9.242;2022-07-29T14:12:31;5.80;;;3.92;;
7255;SDS011;3669;49.200;9.242;2022-07-29T14:14:58;3.92;;;3.53;;
7255;SDS011;3669;49.200;9.242;2022-07-29T14:17:25;6.68;;;3.55;;
7255;SDS011;3669;49.200;9.242;2022-07-29T14:19:52;4.65;;;3.42;;
7255;SDS011;3669;49.200;9.242;2022-07-29T14:22:19;3.80;;;3.22;;
7255;SDS011;3669;49.200;9.242;2022-07-29T14:24:46;3.55;;;3.17;;
7255;SDS011;3669;49.200;9.242;2022-07-29T14:27:13;4.05;;;3.25;;
7255;SDS011;3669;49.200;9.242;2022-07-29T14:29:40;3.80;;;3.33;;
7255;SDS011;3669;49.200;9.242;2022-07-29T14:32:08;3.85;;;3.30;;
7255;SDS011;3669;49.200;9.242;2022-07-29T14:34:36;6.50;;;3.67;;
7255;SDS011;3669;49.200;9.242;2022-07-29T14:37:03;3.75;;;3.45;;
7255;SDS011;3669;49.200;9.242;2022-07-29T14:39:34;4.00;;;3.08;;
7255;SDS011;3669;49.200;9.242;2022-07-29T14:42:05;4.63;;;3.40;;
7255;SDS011;3669;49.200;9.242;2022-07-29T14:44:33;4.35;;;3.05;;
7255;SDS011;3669;49.200;9.242;2022-07-29T14:47:00;3.85;;;3.30;;
7255;SDS011;3669;49.200;9.242;2022-07-29T14:49:27;4.90;;;3.33;;
7255;SDS011;3669;49.200;9.242;2022-07-29T14:51:54;4.07;;;3.30;;
7255;SDS011;3669;49.200;9.242;2022-07-29T14:54:22;3.90;;;3.50;;
7255;SDS011;3669;49.200;9.242;2022-07-29T14:56:49;3.05;;;2.85;;
7255;SDS011;3669;49.200;9.242;2022-07-29T14:59:16;4.28;;;3.10;;
7255;SDS011;3669;49.200;9.242;2022-07-29T15:01:44;5.97;;;5.40;;
7255;SDS011;3669;49.200;9.242;2022-07-29T15:04:11;3.70;;;3.33;;
7255;SDS011;3669;49.200;9.242;2022-07-29T15:06:38;3.78;;;3.20;;
7255;SDS011;3669;49.200;9.242;2022-07-29T15:09:05;6.78;;;3.10;;
7255;SDS011;3669;49.200;9.242;2022-07-29T15:11:32;3.60;;;3.30;;
7255;SDS011;3669;49.200;9.242;2022-07-29T15:13:59;4.05;;;3.50;;
7255;SDS011;3669;49.200;9.242;2022-07-29T15:16:27;4.70;;;3.58;;
7255;SDS011;3669;49.200;9.242;2022-07-29T15:18:54;3.78;;;3.25;;
7255;SDS011;3669;49.200;9.242;2022-07-29T15:21:23;3.70;;;3.40;;
7255;SDS011;3669;49.200;9.242;2022-07-29T15:23:51;3.90;;;3.60;;
7255;SDS011;3669;49.200;9.242;2022-07-29T15:26:18;3.40;;;3.20;;
7255;SDS011;3669;49.200;9.242;2022-07-29T15:28:45;3.42;;;3.13;;
7255;SDS011;3669;49.200;9.242;2022-07-29T15:31:12;3.85;;;3.45;;
7255;SDS011;3669;49.200;9.242;2022-07-29T15:33:39;4.18;;;3.40;;
7255;SDS011;3669;49.200;9.242;2022-07-29T15:36:06;3.38;;;3.10;;
7255;SDS011;3669;49.200;9.242;2022-07-29T15:38:33;3.70;;;3.40;;
7255;SDS011;3669;49.200;9.242;2022-07-29T15:41:00;3.28;;;2.97;;
7255;SDS011;3669;49.200;9.242;2022-07-29T15:43:28;3.53;;;3.22;;
7255;SDS011;3669;49.200;9.242;2022-07-29T15:45:55;3.40;;;3.10;;
7255;SDS011;3669;49.200;9.242;2022-07-29T15:48:40;3.90;;;3.50;;
7255;SDS011;3669;49.200;9.242;2022-07-29T15:51:07;3.15;;;2.85;;
7255;SDS011;3669;49.200;9.242;2022-07-29T15:53:34;3.67;;;3.08;;
7255;SDS011;3669;49.200;9.242;2022-07-29T15:56:01;3.67;;;3.17;;
7255;SDS011;3669;49.200;9.242;2022-07-29T15:58:29;3.58;;;2.90;;
7255;SDS011;3669;49.200;9.242;2022-07-29T16:00:56;3.13;;;2.92;;